sensor_id;sensor_type;location;lat;lon;timestamp;P1;durP1;ratioP1;P2;durP2;ratioP2
22186;SDS011;11259;52.146;12.844;2023-05-10T00:01:14;2.83;;;1.70;;
22186;SDS011;11259;52.146;12.844;2023-05-10T00:03:39;1.85;;;1.52;;
22186;SDS011;11259;52.146;12.844;2023-05-10T00:06:04;1.33;;;1.23;;
22186;SDS011;11259;52.146;12.844;2023-05-10T00:08:30;2.65;;;1.55;;
22186;SDS011;11259;52.146;12.844;2023-05-10T00:10:56;1.92;;;1.30;;
22186;SDS011;11259;52.146;12.844;2023-05-10T00:13:22;1.50;;;1.40;;
22186;SDS011;11259;52.146;12.844;2023-05-10T00:15:47;2.33;;;1.73;;
22186;SDS011;11259;52.146;12.844;2023-05-10T00:18:12;1.85;;;1.50;;
22186;SDS011;11259;52.146;12.844;2023-05-10T00:20:38;4.60;;;2.30;;
22186;SDS011;11259;52.146;12.844;2023-05-10T00:23:03;1.58;;;1.48;;
22186;SDS011;11259;52.146;12.844;2023-05-10T00:25:28;1.88;;;1.67;;
22186;SDS011;11259;52.146;12.844;2023-05-10T00:27:55;2.63;;;1.83;;
22186;SDS011;11259;52.146;12.844;2023-05-10T00:30:20;2.42;;;1.98;;
22186;SDS011;11259;52.146;12.844;2023-05-10T00:32:46;3.13;;;2.17;;
22186;SDS011;11259;52.146;12.844;2023-05-10T00:35:11;1.88;;;1.50;;
22186;SDS011;11259;52.146;12.844;2023-05-10T00:37:36;1.65;;;1.55;;
22186;SDS011;11259;52.146;12.844;2023-05-10T00:40:02;2.63;;;1.90;;
22186;SDS011;11259;52.146;12.844;2023-05-10T00:42:27;1.73;;;1.38;;
22186;SDS011;11259;52.146;12.844;2023-05-10T00:44:54;1.98;;;1.77;;
22186;SDS011;11259;52.146;12.844;2023-05-10T00:47:19;2.30;;;1.58;;
22186;SDS011;11259;52.146;12.844;2023-05-10T00:49:44;2.40;;;1.35;;
22186;SDS011;11259;52.146;12.844;2023-05-10T00:52:10;2.97;;;1.70;;
22186;SDS011;11259;52.146;12.844;2023-05-10T00:54:36;2.67;;;1.80;;
22186;SDS011;11259;52.146;12.844;2023-05-10T00:57:01;4.53;;;1.88;;
22186;SDS011;11259;52.146;12.844;2023-05-10T00:59:27;1.58;;;1.48;;
22186;SDS011;11259;52.146;12.844;2023-05-10T01:01:53;4.85;;;1.27;;
22186;SDS011;11259;52.146;12.844;2023-05-10T01:04:19;1.52;;;1.30;;
22186;SDS011;11259;52.146;12.844;2023-05-10T01:06:44;1.60;;;1.48;;
22186;SDS011;11259;52.146;12.844;2023-05-10T01:09:09;2.70;;;1.90;;
22186;SDS011;11259;52.146;12.844;2023-05-10T01:11:35;1.75;;;1.55;;
22186;SDS011;11259;52.146;12.844;2023-05-10T01:14:01;2.03;;;1.73;;
22186;SDS011;11259;52.146;12.844;2023-05-10T01:16:27;2.70;;;1.63;;
22186;SDS011;11259;52.146;12.844;2023-05-10T01:18:54;3.00;;;1.83;;
22186;SDS011;11259;52.146;12.844;2023-05-10T01:21:23;1.88;;;1.60;;
22186;SDS011;11259;52.146;12.844;2023-05-10T01:27:11;2.25;;;1.30;;
22186;SDS011;11259;52.146;12.844;2023-05-10T01:29:55;6.13;;;2.25;;
22186;SDS011;11259;52.146;12.844;2023-05-10T01:32:44;3.28;;;1.73;;
22186;SDS011;11259;52.146;12.844;2023-05-10T01:35:14;2.15;;;1.70;;
22186;SDS011;11259;52.146;12.844;2023-05-10T01:37:43;2.15;;;1.75;;
22186;SDS011;11259;52.146;12.844;2023-05-10T01:40:19;1.80;;;1.70;;
22186;SDS011;11259;52.146;12.844;2023-05-10T01:42:50;2.47;;;1.90;;
22186;SDS011;11259;52.146;12.844;2023-05-10T01:45:18;2.50;;;1.77;;
22186;SDS011;11259;52.146;12.844;2023-05-10T01:47:48;2.22;;;1.92;;
22186;SDS011;11259;52.146;12.844;2023-05-10T01:50:17;2.88;;;1.63;;
22186;SDS011;11259;52.146;12.844;2023-05-10T01:52:44;2.85;;;1.77;;
22186;SDS011;11259;52.146;12.844;2023-05-10T01:55:14;2.08;;;1.73;;
22186;SDS011;11259;52.146;12.844;2023-05-10T01:57:40;1.98;;;1.55;;
22186;SDS011;11259;52.146;12.844;2023-05-10T02:00:08;2.60;;;1.88;;
22186;SDS011;11259;52.146;12.844;2023-05-10T02:02:35;3.40;;;2.10;;
22186;SDS011;11259;52.146;12.844;2023-05-10T02:05:05;2.33;;;2.00;;
22186;SDS011;11259;52.146;12.844;2023-05-10T02:07:31;3.00;;;1.73;;
22186;SDS011;11259;52.146;12.844;2023-05-10T02:09:56;3.00;;;1.80;;
22186;SDS011;11259;52.146;12.844;2023-05-10T02:12:23;2.00;;;1.80;;
22186;SDS011;11259;52.146;12.844;2023-05-10T02:14:49;2.42;;;1.70;;
22186;SDS011;11259;52.146;12.844;2023-05-10T02:17:15;2.03;;;1.77;;
22186;SDS011;11259;52.146;12.844;2023-05-10T02:19:41;3.10;;;2.00;;
22186;SDS011;11259;52.146;12.844;2023-05-10T02:22:08;1.88;;;1.60;;
22186;SDS011;11259;52.146;12.844;2023-05-10T02:24:34;2.10;;;1.67;;
22186;SDS011;11259;52.146;12.844;2023-05-10T02:27:00;1.85;;;1.75;;
22186;SDS011;11259;52.146;12.844;2023-05-10T02:29:26;2.38;;;2.05;;
22186;SDS011;11259;52.146;12.844;2023-05-10T02:31:52;1.98;;;1.75;;
22186;SDS011;11259;52.146;12.844;2023-05-10T02:34:18;3.78;;;2.10;;
22186;SDS011;11259;52.146;12.844;2023-05-10T02:36:44;1.50;;;1.40;;
22186;SDS011;11259;52.146;12.844;2023-05-10T02:39:11;2.83;;;1.88;;
22186;SDS011;11259;52.146;12.844;2023-05-10T02:41:37;2.15;;;1.48;;
22186;SDS011;11259;52.146;12.844;2023-05-10T02:44:03;1.90;;;1.40;;
22186;SDS011;11259;52.146;12.844;2023-05-10T02:46:31;2.63;;;1.92;;
22186;SDS011;11259;52.146;12.844;2023-05-10T02:48:56;3.20;;;1.58;;
22186;SDS011;11259;52.146;12.844;2023-05-10T02:51:23;2.22;;;1.70;;
22186;SDS011;11259;52.146;12.844;2023-05-10T02:53:49;1.77;;;1.63;;
22186;SDS011;11259;52.146;12.844;2023-05-10T02:56:20;1.88;;;1.60;;
22186;SDS011;11259;52.146;12.844;2023-05-10T02:58:49;2.97;;;2.03;;
22186;SDS011;11259;52.146;12.844;2023-05-10T03:01:14;3.15;;;1.88;;
22186;SDS011;11259;52.146;12.844;2023-05-10T03:03:39;3.28;;;1.73;;
22186;SDS011;11259;52.146;12.844;2023-05-10T03:06:05;2.40;;;1.55;;
22186;SDS011;11259;52.146;12.844;2023-05-10T03:08:30;2.00;;;1.83;;
22186;SDS011;11259;52.146;12.844;2023-05-10T03:10:59;3.30;;;1.90;;
22186;SDS011;11259;52.146;12.844;2023-05-10T03:13:35;1.77;;;1.67;;
22186;SDS011;11259;52.146;12.844;2023-05-10T03:16:07;1.90;;;1.60;;
22186;SDS011;11259;52.146;12.844;2023-05-10T03:18:36;2.22;;;1.80;;
22186;SDS011;11259;52.146;12.844;2023-05-10T03:21:07;2.35;;;1.80;;
22186;SDS011;11259;52.146;12.844;2023-05-10T03:23:34;1.98;;;1.73;;
22186;SDS011;11259;52.146;12.844;2023-05-10T03:26:00;6.00;;;1.48;;
22186;SDS011;11259;52.146;12.844;2023-05-10T03:28:26;3.05;;;2.17;;
22186;SDS011;11259;52.146;12.844;2023-05-10T03:30:53;1.88;;;1.55;;
22186;SDS011;11259;52.146;12.844;2023-05-10T03:33:19;2.25;;;2.03;;
22186;SDS011;11259;52.146;12.844;2023-05-10T03:35:44;1.48;;;1.17;;
22186;SDS011;11259;52.146;12.844;2023-05-10T03:38:09;1.95;;;1.77;;
22186;SDS011;11259;52.146;12.844;2023-05-10T03:40:35;2.35;;;1.80;;
22186;SDS011;11259;52.146;12.844;2023-05-10T03:43:00;2.47;;;1.55;;
22186;SDS011;11259;52.146;12.844;2023-05-10T03:45:26;3.70;;;2.00;;
22186;SDS011;11259;52.146;12.844;2023-05-10T03:47:53;1.75;;;1.33;;
22186;SDS011;11259;52.146;12.844;2023-05-10T03:50:18;1.95;;;1.58;;
22186;SDS011;11259;52.146;12.844;2023-05-10T03:52:43;2.13;;;1.65;;
22186;SDS011;11259;52.146;12.844;2023-05-10T03:55:09;2.33;;;1.63;;
22186;SDS011;11259;52.146;12.844;2023-05-10T03:57:34;2.03;;;1.63;;
22186;SDS011;11259;52.146;12.844;2023-05-10T04:00:00;3.88;;;1.95;;
22186;SDS011;11259;52.146;12.844;2023-05-10T04:02:25;2.08;;;1.70;;
22186;SDS011;11259;52.146;12.844;2023-05-10T04:04:52;1.92;;;1.33;;
22186;SDS011;11259;52.146;12.844;2023-05-10T04:07:17;2.50;;;2.28;;
22186;SDS011;11259;52.146;12.844;2023-05-10T04:09:42;2.33;;;1.33;;
22186;SDS011;11259;52.146;12.844;2023-05-10T04:12:08;2.95;;;1.65;;
22186;SDS011;11259;52.146;12.844;2023-05-10T04:14:33;2.42;;;1.55;;
22186;SDS011;11259;52.146;12.844;2023-05-10T04:16:58;2.75;;;1.52;;
22186;SDS011;11259;52.146;12.844;2023-05-10T04:19:28;2.35;;;1.75;;
22186;SDS011;11259;52.146;12.844;2023-05-10T04:21:55;2.70;;;2.08;;
22186;SDS011;11259;52.146;12.844;2023-05-10T04:24:20;1.95;;;1.27;;
22186;SDS011;11259;52.146;12.844;2023-05-10T04:26:46;2.10;;;1.38;;
22186;SDS011;11259;52.146;12.844;2023-05-10T04:29:11;3.30;;;1.60;;
22186;SDS011;11259;52.146;12.844;2023-05-10T04:31:36;1.73;;;1.63;;
22186;SDS011;11259;52.146;12.844;2023-05-10T04:34:02;1.55;;;1.45;;
22186;SDS011;11259;52.146;12.844;2023-05-10T04:36:27;4.05;;;2.05;;
22186;SDS011;11259;52.146;12.844;2023-05-10T04:38:54;1.95;;;1.70;;
22186;SDS011;11259;52.146;12.844;2023-05-10T04:41:19;1.27;;;1.17;;
22186;SDS011;11259;52.146;12.844;2023-05-10T04:43:45;3.05;;;2.33;;
22186;SDS011;11259;52.146;12.844;2023-05-10T04:46:10;1.95;;;1.45;;
22186;SDS011;11259;52.146;12.844;2023-05-10T04:48:35;1.50;;;1.40;;
22186;SDS011;11259;52.146;12.844;2023-05-10T04:51:01;1.90;;;1.67;;
22186;SDS011;11259;52.146;12.844;2023-05-10T04:53:26;2.05;;;1.23;;
22186;SDS011;11259;52.146;12.844;2023-05-10T04:55:52;1.77;;;1.67;;
22186;SDS011;11259;52.146;12.844;2023-05-10T04:58:18;3.65;;;2.00;;
22186;SDS011;11259;52.146;12.844;2023-05-10T05:00:43;1.67;;;1.58;;
22186;SDS011;11259;52.146;12.844;2023-05-10T05:03:08;1.90;;;1.75;;
22186;SDS011;11259;52.146;12.844;2023-05-10T05:05:34;2.63;;;1.67;;
22186;SDS011;11259;52.146;12.844;2023-05-10T05:07:59;1.85;;;1.33;;
22186;SDS011;11259;52.146;12.844;2023-05-10T05:10:24;2.08;;;1.75;;
22186;SDS011;11259;52.146;12.844;2023-05-10T05:12:51;2.58;;;1.98;;
22186;SDS011;11259;52.146;12.844;2023-05-10T05:15:16;1.60;;;1.50;;
22186;SDS011;11259;52.146;12.844;2023-05-10T05:17:42;1.33;;;1.23;;
22186;SDS011;11259;52.146;12.844;2023-05-10T05:20:08;2.35;;;1.48;;
22186;SDS011;11259;52.146;12.844;2023-05-10T05:22:35;1.60;;;1.35;;
22186;SDS011;11259;52.146;12.844;2023-05-10T05:25:00;2.00;;;1.38;;
22186;SDS011;11259;52.146;12.844;2023-05-10T05:27:25;2.53;;;1.80;;
22186;SDS011;11259;52.146;12.844;2023-05-10T05:29:53;2.35;;;1.48;;
22186;SDS011;11259;52.146;12.844;2023-05-10T05:32:18;1.73;;;1.23;;
22186;SDS011;11259;52.146;12.844;2023-05-10T05:34:44;2.17;;;1.50;;
22186;SDS011;11259;52.146;12.844;2023-05-10T05:37:12;1.55;;;1.40;;
22186;SDS011;11259;52.146;12.844;2023-05-10T05:39:37;2.67;;;1.30;;
22186;SDS011;11259;52.146;12.844;2023-05-10T05:42:03;1.10;;;1.00;;
22186;SDS011;11259;52.146;12.844;2023-05-10T05:44:28;1.25;;;1.15;;
22186;SDS011;11259;52.146;12.844;2023-05-10T05:46:55;1.70;;;1.60;;
22186;SDS011;11259;52.146;12.844;2023-05-10T05:49:20;14.15;;;1.48;;
22186;SDS011;11259;52.146;12.844;2023-05-10T05:51:46;3.28;;;0.93;;
22186;SDS011;11259;52.146;12.844;2023-05-10T05:54:11;1.20;;;1.10;;
22186;SDS011;11259;52.146;12.844;2023-05-10T05:56:36;1.08;;;1.02;;
22186;SDS011;11259;52.146;12.844;2023-05-10T05:59:01;1.15;;;1.02;;
22186;SDS011;11259;52.146;12.844;2023-05-10T06:01:27;1.40;;;1.30;;
22186;SDS011;11259;52.146;12.844;2023-05-10T06:03:53;1.17;;;0.90;;
22186;SDS011;11259;52.146;12.844;2023-05-10T06:06:19;1.30;;;1.00;;
22186;SDS011;11259;52.146;12.844;2023-05-10T06:08:44;1.00;;;0.88;;
22186;SDS011;11259;52.146;12.844;2023-05-10T06:11:09;1.42;;;1.00;;
22186;SDS011;11259;52.146;12.844;2023-05-10T06:13:35;2.03;;;1.60;;
22186;SDS011;11259;52.146;12.844;2023-05-10T06:16:00;2.28;;;1.58;;
22186;SDS011;11259;52.146;12.844;2023-05-10T06:18:26;0.98;;;0.85;;
22186;SDS011;11259;52.146;12.844;2023-05-10T06:20:52;1.00;;;0.90;;
22186;SDS011;11259;52.146;12.844;2023-05-10T06:23:18;1.13;;;0.90;;
22186;SDS011;11259;52.146;12.844;2023-05-10T06:25:43;1.35;;;1.02;;
22186;SDS011;11259;52.146;12.844;2023-05-10T06:28:08;0.98;;;0.80;;
22186;SDS011;11259;52.146;12.844;2023-05-10T06:30:35;0.82;;;0.70;;
22186;SDS011;11259;52.146;12.844;2023-05-10T06:33:00;2.22;;;1.13;;
22186;SDS011;11259;52.146;12.844;2023-05-10T06:35:26;1.45;;;1.35;;
22186;SDS011;11259;52.146;12.844;2023-05-10T06:37:52;1.10;;;1.00;;
22186;SDS011;11259;52.146;12.844;2023-05-10T06:40:18;1.05;;;1.00;;
22186;SDS011;11259;52.146;12.844;2023-05-10T06:42:43;0.88;;;0.88;;
22186;SDS011;11259;52.146;12.844;2023-05-10T06:45:09;1.00;;;0.80;;
22186;SDS011;11259;52.146;12.844;2023-05-10T06:47:35;1.02;;;0.93;;
22186;SDS011;11259;52.146;12.844;2023-05-10T06:50:00;2.08;;;1.10;;
22186;SDS011;11259;52.146;12.844;2023-05-10T06:52:26;1.25;;;1.15;;
22186;SDS011;11259;52.146;12.844;2023-05-10T06:54:52;1.45;;;1.10;;
22186;SDS011;11259;52.146;12.844;2023-05-10T06:57:17;1.20;;;0.93;;
22186;SDS011;11259;52.146;12.844;2023-05-10T06:59:43;1.33;;;0.90;;
22186;SDS011;11259;52.146;12.844;2023-05-10T07:02:08;1.55;;;1.25;;
22186;SDS011;11259;52.146;12.844;2023-05-10T07:04:33;1.80;;;1.40;;
22186;SDS011;11259;52.146;12.844;2023-05-10T07:06:59;2.97;;;1.92;;
22186;SDS011;11259;52.146;12.844;2023-05-10T07:09:24;2.67;;;1.70;;
22186;SDS011;11259;52.146;12.844;2023-05-10T07:11:51;1.42;;;1.30;;
22186;SDS011;11259;52.146;12.844;2023-05-10T07:14:16;1.33;;;1.23;;
22186;SDS011;11259;52.146;12.844;2023-05-10T07:16:41;1.08;;;0.98;;
22186;SDS011;11259;52.146;12.844;2023-05-10T07:19:07;0.93;;;0.90;;
22186;SDS011;11259;52.146;12.844;2023-05-10T07:21:32;0.90;;;0.88;;
22186;SDS011;11259;52.146;12.844;2023-05-10T07:23:57;1.15;;;0.90;;
22186;SDS011;11259;52.146;12.844;2023-05-10T07:26:23;1.08;;;0.98;;
22186;SDS011;11259;52.146;12.844;2023-05-10T07:28:49;1.25;;;1.02;;
22186;SDS011;11259;52.146;12.844;2023-05-10T07:31:15;1.23;;;1.13;;
22186;SDS011;11259;52.146;12.844;2023-05-10T07:33:40;0.80;;;0.77;;
22186;SDS011;11259;52.146;12.844;2023-05-10T07:36:05;1.50;;;1.40;;
22186;SDS011;11259;52.146;12.844;2023-05-10T07:38:31;1.23;;;1.10;;
22186;SDS011;11259;52.146;12.844;2023-05-10T07:40:56;1.70;;;1.55;;
22186;SDS011;11259;52.146;12.844;2023-05-10T07:43:22;1.17;;;1.08;;
22186;SDS011;11259;52.146;12.844;2023-05-10T07:45:48;1.70;;;1.17;;
22186;SDS011;11259;52.146;12.844;2023-05-10T07:48:14;0.80;;;0.80;;
22186;SDS011;11259;52.146;12.844;2023-05-10T07:50:39;0.93;;;0.93;;
22186;SDS011;11259;52.146;12.844;2023-05-10T07:53:04;0.90;;;0.90;;
22186;SDS011;11259;52.146;12.844;2023-05-10T07:55:30;1.48;;;1.02;;
22186;SDS011;11259;52.146;12.844;2023-05-10T07:57:55;1.02;;;0.90;;
22186;SDS011;11259;52.146;12.844;2023-05-10T08:00:20;1.00;;;0.98;;
22186;SDS011;11259;52.146;12.844;2023-05-10T08:02:47;0.90;;;0.90;;
22186;SDS011;11259;52.146;12.844;2023-05-10T08:05:12;1.33;;;1.23;;
22186;SDS011;11259;52.146;12.844;2023-05-10T08:07:38;1.17;;;1.08;;
22186;SDS011;11259;52.146;12.844;2023-05-10T08:10:04;1.45;;;1.20;;
22186;SDS011;11259;52.146;12.844;2023-05-10T08:12:30;0.90;;;0.90;;
22186;SDS011;11259;52.146;12.844;2023-05-10T08:14:55;0.65;;;0.65;;
22186;SDS011;11259;52.146;12.844;2023-05-10T08:17:20;0.73;;;0.73;;
22186;SDS011;11259;52.146;12.844;2023-05-10T08:19:47;1.20;;;0.93;;
22186;SDS011;11259;52.146;12.844;2023-05-10T08:22:12;0.88;;;0.88;;
22186;SDS011;11259;52.146;12.844;2023-05-10T08:24:38;0.82;;;0.82;;
22186;SDS011;11259;52.146;12.844;2023-05-10T08:27:03;1.10;;;1.00;;
22186;SDS011;11259;52.146;12.844;2023-05-10T08:29:29;0.90;;;0.90;;
22186;SDS011;11259;52.146;12.844;2023-05-10T08:31:54;1.35;;;0.82;;
22186;SDS011;11259;52.146;12.844;2023-05-10T08:34:20;1.02;;;0.93;;
22186;SDS011;11259;52.146;12.844;2023-05-10T08:36:46;1.05;;;0.98;;
22186;SDS011;11259;52.146;12.844;2023-05-10T08:39:12;1.48;;;1.38;;
22186;SDS011;11259;52.146;12.844;2023-05-10T08:41:37;0.85;;;0.85;;
22186;SDS011;11259;52.146;12.844;2023-05-10T08:44:03;1.05;;;0.95;;
22186;SDS011;11259;52.146;12.844;2023-05-10T08:46:29;1.20;;;1.10;;
22186;SDS011;11259;52.146;12.844;2023-05-10T08:48:56;1.23;;;1.10;;
22186;SDS011;11259;52.146;12.844;2023-05-10T08:51:23;0.90;;;0.75;;
22186;SDS011;11259;52.146;12.844;2023-05-10T08:53:51;1.15;;;1.05;;
22186;SDS011;11259;52.146;12.844;2023-05-10T08:56:16;1.35;;;0.95;;
22186;SDS011;11259;52.146;12.844;2023-05-10T08:58:42;0.90;;;0.90;;
22186;SDS011;11259;52.146;12.844;2023-05-10T09:01:07;1.98;;;1.25;;
22186;SDS011;11259;52.146;12.844;2023-05-10T09:03:33;1.40;;;1.13;;
22186;SDS011;11259;52.146;12.844;2023-05-10T09:05:59;1.73;;;1.40;;
22186;SDS011;11259;52.146;12.844;2023-05-10T09:08:24;1.92;;;1.30;;
22186;SDS011;11259;52.146;12.844;2023-05-10T09:10:51;1.83;;;1.45;;
22186;SDS011;11259;52.146;12.844;2023-05-10T09:13:17;1.00;;;0.88;;
22186;SDS011;11259;52.146;12.844;2023-05-10T09:15:43;1.00;;;0.90;;
22186;SDS011;11259;52.146;12.844;2023-05-10T09:18:08;1.30;;;1.08;;
22186;SDS011;11259;52.146;12.844;2023-05-10T09:20:34;1.60;;;1.40;;
22186;SDS011;11259;52.146;12.844;2023-05-10T09:22:59;1.20;;;1.10;;
22186;SDS011;11259;52.146;12.844;2023-05-10T09:25:24;1.10;;;1.00;;
22186;SDS011;11259;52.146;12.844;2023-05-10T09:27:51;1.10;;;1.00;;
22186;SDS011;11259;52.146;12.844;2023-05-10T09:30:17;1.20;;;1.10;;
22186;SDS011;11259;52.146;12.844;2023-05-10T09:32:48;1.27;;;1.00;;
22186;SDS011;11259;52.146;12.844;2023-05-10T09:35:14;1.90;;;1.20;;
22186;SDS011;11259;52.146;12.844;2023-05-10T09:37:40;1.35;;;1.17;;
22186;SDS011;11259;52.146;12.844;2023-05-10T09:40:07;1.13;;;1.08;;
22186;SDS011;11259;52.146;12.844;2023-05-10T09:42:33;1.17;;;1.08;;
22186;SDS011;11259;52.146;12.844;2023-05-10T09:45:01;1.55;;;1.00;;
22186;SDS011;11259;52.146;12.844;2023-05-10T09:47:27;1.17;;;1.08;;
22186;SDS011;11259;52.146;12.844;2023-05-10T09:49:52;1.27;;;0.90;;
22186;SDS011;11259;52.146;12.844;2023-05-10T09:52:18;0.95;;;0.82;;
22186;SDS011;11259;52.146;12.844;2023-05-10T09:54:45;1.20;;;1.10;;
22186;SDS011;11259;52.146;12.844;2023-05-10T09:57:18;1.05;;;0.95;;
22186;SDS011;11259;52.146;12.844;2023-05-10T09:59:44;1.35;;;1.08;;
22186;SDS011;11259;52.146;12.844;2023-05-10T10:02:11;1.45;;;1.35;;
22186;SDS011;11259;52.146;12.844;2023-05-10T10:04:38;1.20;;;1.10;;
22186;SDS011;11259;52.146;12.844;2023-05-10T10:07:04;1.30;;;1.20;;
22186;SDS011;11259;52.146;12.844;2023-05-10T10:09:30;1.30;;;1.10;;
22186;SDS011;11259;52.146;12.844;2023-05-10T10:11:55;1.30;;;1.20;;
22186;SDS011;11259;52.146;12.844;2023-05-10T10:14:21;1.77;;;1.30;;
22186;SDS011;11259;52.146;12.844;2023-05-10T10:16:47;1.13;;;1.02;;
22186;SDS011;11259;52.146;12.844;2023-05-10T10:19:15;1.08;;;1.00;;
22186;SDS011;11259;52.146;12.844;2023-05-10T10:21:40;1.30;;;1.20;;
22186;SDS011;11259;52.146;12.844;2023-05-10T10:24:06;1.10;;;1.00;;
22186;SDS011;11259;52.146;12.844;2023-05-10T10:26:32;1.35;;;1.10;;
22186;SDS011;11259;52.146;12.844;2023-05-10T10:29:00;1.30;;;1.20;;
22186;SDS011;11259;52.146;12.844;2023-05-10T10:31:34;1.20;;;1.10;;
22186;SDS011;11259;52.146;12.844;2023-05-10T10:34:03;1.50;;;1.40;;
22186;SDS011;11259;52.146;12.844;2023-05-10T10:36:31;1.40;;;1.30;;
22186;SDS011;11259;52.146;12.844;2023-05-10T10:38:57;1.65;;;1.10;;
22186;SDS011;11259;52.146;12.844;2023-05-10T10:41:27;1.13;;;1.02;;
22186;SDS011;11259;52.146;12.844;2023-05-10T10:47:00;3.97;;;1.50;;
22186;SDS011;11259;52.146;12.844;2023-05-10T10:49:26;1.45;;;1.05;;
22186;SDS011;11259;52.146;12.844;2023-05-10T10:52:13;1.20;;;1.10;;
22186;SDS011;11259;52.146;12.844;2023-05-10T10:54:40;1.50;;;1.40;;
22186;SDS011;11259;52.146;12.844;2023-05-10T10:57:11;1.52;;;1.27;;
22186;SDS011;11259;52.146;12.844;2023-05-10T10:59:40;1.58;;;1.15;;
22186;SDS011;11259;52.146;12.844;2023-05-10T11:02:06;1.80;;;1.35;;
22186;SDS011;11259;52.146;12.844;2023-05-10T11:04:34;1.50;;;1.40;;
22186;SDS011;11259;52.146;12.844;2023-05-10T11:07:19;1.35;;;1.25;;
22186;SDS011;11259;52.146;12.844;2023-05-10T11:09:45;1.38;;;1.15;;
22186;SDS011;11259;52.146;12.844;2023-05-10T11:12:11;1.35;;;1.10;;
22186;SDS011;11259;52.146;12.844;2023-05-10T11:14:37;1.45;;;1.30;;
22186;SDS011;11259;52.146;12.844;2023-05-10T11:17:02;1.30;;;1.20;;
22186;SDS011;11259;52.146;12.844;2023-05-10T11:22:30;1.75;;;1.25;;
22186;SDS011;11259;52.146;12.844;2023-05-10T11:27:39;1.87;;;1.20;;
22186;SDS011;11259;52.146;12.844;2023-05-10T11:30:05;1.00;;;1.00;;
22186;SDS011;11259;52.146;12.844;2023-05-10T11:32:31;2.03;;;1.40;;
22186;SDS011;11259;52.146;12.844;2023-05-10T11:34:56;1.67;;;1.30;;
22186;SDS011;11259;52.146;12.844;2023-05-10T11:37:22;2.00;;;1.48;;
22186;SDS011;11259;52.146;12.844;2023-05-10T11:39:48;1.27;;;1.02;;
22186;SDS011;11259;52.146;12.844;2023-05-10T11:42:14;1.50;;;1.27;;
22186;SDS011;11259;52.146;12.844;2023-05-10T11:44:39;2.90;;;1.33;;
22186;SDS011;11259;52.146;12.844;2023-05-10T11:47:04;0.90;;;0.90;;
22186;SDS011;11259;52.146;12.844;2023-05-10T11:49:30;1.48;;;1.15;;
22186;SDS011;11259;52.146;12.844;2023-05-10T11:52:03;1.63;;;1.52;;
22186;SDS011;11259;52.146;12.844;2023-05-10T11:54:29;1.48;;;1.38;;
22186;SDS011;11259;52.146;12.844;2023-05-10T11:56:55;2.97;;;1.27;;
22186;SDS011;11259;52.146;12.844;2023-05-10T11:59:21;1.95;;;1.75;;
22186;SDS011;11259;52.146;12.844;2023-05-10T12:01:46;2.10;;;1.60;;
22186;SDS011;11259;52.146;12.844;2023-05-10T12:04:12;2.05;;;1.30;;
22186;SDS011;11259;52.146;12.844;2023-05-10T12:06:40;1.50;;;1.40;;
22186;SDS011;11259;52.146;12.844;2023-05-10T12:09:06;1.50;;;1.40;;
22186;SDS011;11259;52.146;12.844;2023-05-10T12:11:31;1.58;;;1.13;;
22186;SDS011;11259;52.146;12.844;2023-05-10T12:13:58;1.95;;;1.55;;
22186;SDS011;11259;52.146;12.844;2023-05-10T12:16:24;1.40;;;1.30;;
22186;SDS011;11259;52.146;12.844;2023-05-10T12:18:51;1.75;;;1.60;;
22186;SDS011;11259;52.146;12.844;2023-05-10T12:21:18;1.27;;;1.17;;
22186;SDS011;11259;52.146;12.844;2023-05-10T12:23:45;1.77;;;1.38;;
22186;SDS011;11259;52.146;12.844;2023-05-10T12:26:10;1.90;;;1.30;;
22186;SDS011;11259;52.146;12.844;2023-05-10T12:28:36;2.28;;;1.45;;
22186;SDS011;11259;52.146;12.844;2023-05-10T12:31:05;1.35;;;1.25;;
22186;SDS011;11259;52.146;12.844;2023-05-10T12:33:37;1.25;;;1.00;;
22186;SDS011;11259;52.146;12.844;2023-05-10T12:36:02;1.50;;;1.00;;
22186;SDS011;11259;52.146;12.844;2023-05-10T12:38:28;1.90;;;1.65;;
22186;SDS011;11259;52.146;12.844;2023-05-10T12:40:54;1.98;;;1.38;;
22186;SDS011;11259;52.146;12.844;2023-05-10T12:43:20;1.80;;;1.45;;
22186;SDS011;11259;52.146;12.844;2023-05-10T12:45:45;1.77;;;1.60;;
22186;SDS011;11259;52.146;12.844;2023-05-10T12:48:12;1.40;;;1.30;;
22186;SDS011;11259;52.146;12.844;2023-05-10T12:50:37;2.03;;;1.45;;
22186;SDS011;11259;52.146;12.844;2023-05-10T12:53:02;1.58;;;1.35;;
22186;SDS011;11259;52.146;12.844;2023-05-10T12:55:28;1.48;;;1.38;;
22186;SDS011;11259;52.146;12.844;2023-05-10T12:57:53;1.63;;;1.13;;
22186;SDS011;11259;52.146;12.844;2023-05-10T13:00:18;1.58;;;1.45;;
22186;SDS011;11259;52.146;12.844;2023-05-10T13:02:44;2.08;;;1.30;;
22186;SDS011;11259;52.146;12.844;2023-05-10T13:05:11;1.52;;;1.38;;
22186;SDS011;11259;52.146;12.844;2023-05-10T13:07:36;1.60;;;1.20;;
22186;SDS011;11259;52.146;12.844;2023-05-10T13:10:01;2.05;;;1.35;;
22186;SDS011;11259;52.146;12.844;2023-05-10T13:12:26;2.55;;;2.10;;
22186;SDS011;11259;52.146;12.844;2023-05-10T13:14:52;1.70;;;1.48;;
22186;SDS011;11259;52.146;12.844;2023-05-10T13:17:17;2.53;;;1.58;;
22186;SDS011;11259;52.146;12.844;2023-05-10T13:19:42;3.05;;;1.70;;
22186;SDS011;11259;52.146;12.844;2023-05-10T13:22:09;4.13;;;1.67;;
22186;SDS011;11259;52.146;12.844;2023-05-10T13:24:34;2.08;;;1.88;;
22186;SDS011;11259;52.146;12.844;2023-05-10T13:27:00;1.73;;;1.58;;
22186;SDS011;11259;52.146;12.844;2023-05-10T13:29:25;1.42;;;1.33;;
22186;SDS011;11259;52.146;12.844;2023-05-10T13:31:52;1.90;;;1.42;;
22186;SDS011;11259;52.146;12.844;2023-05-10T13:34:17;1.98;;;1.70;;
22186;SDS011;11259;52.146;12.844;2023-05-10T13:36:42;1.85;;;1.63;;
22186;SDS011;11259;52.146;12.844;2023-05-10T13:39:09;1.42;;;1.27;;
22186;SDS011;11259;52.146;12.844;2023-05-10T13:41:34;3.53;;;1.90;;
22186;SDS011;11259;52.146;12.844;2023-05-10T13:44:00;2.13;;;1.67;;
22186;SDS011;11259;52.146;12.844;2023-05-10T13:46:25;3.00;;;1.52;;
22186;SDS011;11259;52.146;12.844;2023-05-10T13:48:50;1.80;;;1.50;;
22186;SDS011;11259;52.146;12.844;2023-05-10T13:51:16;2.00;;;1.67;;
22186;SDS011;11259;52.146;12.844;2023-05-10T13:53:41;2.70;;;2.17;;
22186;SDS011;11259;52.146;12.844;2023-05-10T13:56:08;1.65;;;1.55;;
22186;SDS011;11259;52.146;12.844;2023-05-10T13:58:33;1.95;;;1.52;;
22186;SDS011;11259;52.146;12.844;2023-05-10T14:00:58;1.40;;;1.23;;
22186;SDS011;11259;52.146;12.844;2023-05-10T14:03:24;1.45;;;1.27;;
22186;SDS011;11259;52.146;12.844;2023-05-10T14:05:49;1.77;;;1.63;;
22186;SDS011;11259;52.146;12.844;2023-05-10T14:08:14;1.45;;;1.25;;
22186;SDS011;11259;52.146;12.844;2023-05-10T14:10:40;3.05;;;1.75;;
22186;SDS011;11259;52.146;12.844;2023-05-10T14:13:06;2.00;;;1.60;;
22186;SDS011;11259;52.146;12.844;2023-05-10T14:15:32;1.75;;;1.58;;
22186;SDS011;11259;52.146;12.844;2023-05-10T14:17:57;2.75;;;1.90;;
22186;SDS011;11259;52.146;12.844;2023-05-10T14:20:22;1.50;;;1.30;;
22186;SDS011;11259;52.146;12.844;2023-05-10T14:22:48;2.67;;;1.50;;
22186;SDS011;11259;52.146;12.844;2023-05-10T14:25:13;1.70;;;1.50;;
22186;SDS011;11259;52.146;12.844;2023-05-10T14:27:39;1.83;;;1.40;;
22186;SDS011;11259;52.146;12.844;2023-05-10T14:30:06;1.60;;;1.50;;
22186;SDS011;11259;52.146;12.844;2023-05-10T14:32:32;9.52;;;1.85;;
22186;SDS011;11259;52.146;12.844;2023-05-10T14:34:58;1.70;;;1.60;;
22186;SDS011;11259;52.146;12.844;2023-05-10T14:37:23;2.75;;;1.45;;
22186;SDS011;11259;52.146;12.844;2023-05-10T14:39:48;1.48;;;1.38;;